Berkhamsted, United Kingdom
Current Conditions -  °F | °C
As of 1:50 PM on Monday 20 Oct 2014 (Local Time) from EGGW Reporting Station
Broken Clouds Broken Clouds  
Wind Chill: 59°   Ceiling: 2300
Heat Index: 59°   Visibility: 6mi
Dew Point: 52°   Wind: 14mph
Humidity: 77%   Direction: 230°SW
Pressure: 29.97"   Gusts: NA
Location:  51.76°N, 0.57°W
Report Text: EGGW 201250Z 23012KT 9999 BKN023 15/11 Q1015
Loading
Personal Weather Stations






























Interactive Weather Map
Tropical Storm Tracking
New forecast layout! Learn more

10-Day Weather Forecast

Advertisements
Track Severe Weather on mobile